Time;durP1;ratioP1;P1;durP2;ratioP2;P2;SDS_P1;SDS_P2;PMS_P1;PMS_P2;Temp;Humidity;BMP_temperature;BMP_pressure;BME280_temperature;BME280_humidity;BME280_pressure;Samples;Min_cycle;Max_cycle;Signal;HPM_P1;HPM_P2
2022/10/25 00:00:17;;;;;;;41.13;20.55;;;;;;;;;;2114907;28;20056;-44
2022/10/25 00:01:21;;;;;;;39.73;20.40;;;;;;;;;;2114772;28;20047;-44
2022/10/25 00:02:23;;;;;;;36.20;19.10;;;;;;;;;;2114899;28;20047;-45
2022/10/25 00:03:24;;;;;;;34.63;19.30;;;;;;;;;;2114878;28;20047;-43
2022/10/25 00:04:25;;;;;;;35.70;17.88;;;;;;;;;;2114939;28;20054;-43
2022/10/25 00:05:26;;;;;;;36.70;19.03;;;;;;;;;;2114960;28;20515;-44
2022/10/25 00:06:28;;;;;;;40.35;19.92;;;;;;;;;;2114914;28;20051;-43
2022/10/25 00:07:29;;;;;;;;;;;;;;;;;;2115283;28;20054;-44
2022/10/25 00:08:30;;;;;;;33.42;18.15;;;;;;;;;;2115006;28;20410;-46
2022/10/25 00:09:31;;;;;;;43.53;20.90;;;;;;;;;;2115175;28;20071;-44
2022/10/25 00:10:32;;;;;;;44.37;19.90;;;;;;;;;;2114965;28;20051;-44
2022/10/25 00:11:33;;;;;;;32.65;17.27;;;;;;;;;;2115168;28;20040;-43
2022/10/25 00:12:39;;;;;;;34.47;17.95;;;;;;;;;;2115048;28;20048;-46
2022/10/25 00:13:40;;;;;;;34.55;18.55;;;;;;;;;;2115045;28;20043;-44
2022/10/25 00:14:41;;;;;;;44.27;21.47;;;;;;;;;;2114831;28;20050;-44
2022/10/25 00:15:42;;;;;;;37.05;20.73;;;;;;;;;;2115120;28;20096;-43
2022/10/25 00:16:43;;;;;;;36.67;19.15;;;;;;;;;;2114702;28;20097;-43
2022/10/25 00:17:44;;;;;;;37.25;20.05;;;;;;;;;;2114776;28;20408;-43
2022/10/25 00:18:46;;;;;;;37.42;19.48;;;;;;;;;;2115020;28;20111;-44
2022/10/25 00:19:47;;;;;;;39.30;19.98;;;;;;;;;;2115169;28;20051;-44
2022/10/25 00:20:48;;;;;;;35.63;18.07;;;;;;;;;;2114721;28;20739;-45
2022/10/25 00:21:50;;;;;;;33.97;18.45;;;;;;;;;;2114645;28;20622;-44
2022/10/25 00:22:51;;;;;;;40.83;21.15;;;;;;;;;;2114684;28;20070;-45
2022/10/25 00:23:52;;;;;;;32.63;17.42;;;;;;;;;;2114906;28;20403;-44
2022/10/25 00:24:53;;;;;;;35.97;18.07;;;;;;;;;;2114815;28;20055;-44
2022/10/25 00:25:59;;;;;;;36.80;17.92;;;;;;;;;;2114657;28;20071;-45
2022/10/25 00:27:00;;;;;;;31.02;17.13;;;;;;;;;;2114878;28;20404;-45
2022/10/25 00:28:01;;;;;;;38.63;20.20;;;;;;;;;;2114712;28;20097;-44
2022/10/25 00:29:03;;;;;;;38.00;20.45;;;;;;;;;;2114595;28;20108;-46
2022/10/25 00:30:04;;;;;;;38.15;19.00;;;;;;;;;;2114647;28;20048;-45
2022/10/25 00:31:07;;;;;;;44.25;21.48;;;;;;;;;;2114722;28;20085;-45
2022/10/25 00:32:08;;;;;;;40.97;20.48;;;;;;;;;;2114690;28;20048;-45
2022/10/25 00:33:09;;;;;;;37.70;18.97;;;;;;;;;;2114749;28;20047;-46
2022/10/25 00:34:10;;;;;;;35.22;17.20;;;;;;;;;;2114894;28;20051;-44
2022/10/25 00:35:11;;;;;;;36.03;18.73;;;;;;;;;;2114650;28;20484;-46
2022/10/25 00:36:13;;;;;;;36.92;19.40;;;;;;;;;;2114692;28;20066;-45
2022/10/25 00:37:15;;;;;;;35.17;19.48;;;;;;;;;;2114642;28;20039;-45
2022/10/25 00:38:15;;;;;;;;;;;;;;;;;;2115311;28;20446;-45
2022/10/25 00:39:17;;;;;;;41.10;21.60;;;;;;;;;;2114711;28;19955;-44
2022/10/25 00:40:18;;;;;;;38.15;21.52;;;;;;;;;;2114792;28;20043;-45
2022/10/25 00:41:21;;;;;;;50.15;22.08;;;;;;;;;;2114936;28;20062;-44
2022/10/25 00:42:23;;;;;;;45.42;21.80;;;;;;;;;;2114686;28;20046;-43
2022/10/25 00:43:24;;;;;;;;;;;;;;;;;;2114796;28;20381;-45
2022/10/25 00:44:44;;;;;;;41.72;20.33;;;;;;;;;;2114580;28;19926;-44
2022/10/25 00:45:46;;;;;;;42.28;22.25;;;;;;;;;;2114538;28;20051;-43
2022/10/25 00:46:47;;;;;;;40.40;19.77;;;;;;;;;;2114818;28;20134;-44
2022/10/25 00:47:50;;;;;;;47.73;21.53;;;;;;;;;;2114679;28;20434;-44
2022/10/25 00:48:54;;;;;;;41.47;21.17;;;;;;;;;;2114680;28;20044;-45
2022/10/25 00:49:58;;;;;;;41.25;21.15;;;;;;;;;;2114901;28;20059;-44
2022/10/25 00:51:00;;;;;;;44.60;21.63;;;;;;;;;;2112975;28;20516;-43
2022/10/25 00:52:01;;;;;;;44.80;22.75;;;;;;;;;;2106232;28;20105;-43
2022/10/25 00:53:07;;;;;;;40.97;20.52;;;;;;;;;;2106144;28;20105;-45
2022/10/25 00:54:10;;;;;;;43.45;22.23;;;;;;;;;;2106287;28;20075;-43
2022/10/25 00:55:12;;;;;;;40.50;22.08;;;;;;;;;;2106089;28;20048;-43
2022/10/25 00:56:14;;;;;;;43.90;22.15;;;;;;;;;;2106106;28;20473;-43
2022/10/25 00:57:17;;;;;;;40.55;22.15;;;;;;;;;;2106109;28;20059;-43
2022/10/25 00:58:20;;;;;;;42.35;22.10;;;;;;;;;;2106459;28;20064;-44
2022/10/25 00:59:22;;;;;;;42.63;21.05;;;;;;;;;;2106380;28;20052;-44
2022/10/25 01:00:23;;;;;;;40.55;20.40;;;;;;;;;;2106145;28;20504;-44
2022/10/25 01:01:24;;;;;;;39.22;20.10;;;;;;;;;;2106037;28;20558;-44
2022/10/25 01:02:26;;;;;;;42.20;20.45;;;;;;;;;;2112323;28;20404;-44
2022/10/25 01:03:27;;;;;;;38.80;19.55;;;;;;;;;;2114688;28;20052;-43
2022/10/25 01:04:30;;;;;;;34.60;18.10;;;;;;;;;;2114459;28;20216;-44
2022/10/25 01:05:31;;;;;;;35.00;19.08;;;;;;;;;;2114436;28;20058;-44
2022/10/25 01:06:35;;;;;;;38.03;20.13;;;;;;;;;;2114362;28;20088;-44
2022/10/25 01:07:36;;;;;;;38.45;19.67;;;;;;;;;;2114442;28;20109;-43
2022/10/25 01:08:39;;;;;;;43.67;21.63;;;;;;;;;;2114817;28;20043;-43
2022/10/25 01:09:41;;;;;;;42.88;22.13;;;;;;;;;;2114624;28;20054;-44
2022/10/25 01:10:42;;;;;;;44.90;22.20;;;;;;;;;;2114465;28;20104;-43
2022/10/25 01:11:43;;;;;;;47.10;21.52;;;;;;;;;;2114375;28;20051;-44
2022/10/25 01:12:44;;;;;;;41.63;20.52;;;;;;;;;;2114507;28;20050;-43
2022/10/25 01:13:50;;;;;;;45.03;21.77;;;;;;;;;;2114590;28;20043;-43
2022/10/25 01:14:51;;;;;;;46.65;22.88;;;;;;;;;;2114782;28;20050;-44
2022/10/25 01:15:59;;;;;;;44.00;21.95;;;;;;;;;;2114386;28;20039;-43
2022/10/25 01:17:03;;;;;;;43.25;21.10;;;;;;;;;;2114571;28;20047;-43
2022/10/25 01:18:08;;;;;;;43.35;21.30;;;;;;;;;;2114449;28;20577;-46
2022/10/25 01:19:18;;;;;;;37.15;18.38;;;;;;;;;;2114425;28;20051;-45
2022/10/25 01:20:31;;;;;;;43.47;20.73;;;;;;;;;;2114591;28;20048;-44
2022/10/25 01:21:47;;;;;;;50.00;22.42;;;;;;;;;;2114537;28;20487;-44
2022/10/25 01:22:50;;;;;;;45.20;22.48;;;;;;;;;;2111972;28;20071;-43
2022/10/25 01:24:03;;;;;;;45.13;23.30;;;;;;;;;;2114472;28;20050;-43
2022/10/25 01:25:04;;;;;;;;;;;;;;;;;;2114554;28;20051;-44
2022/10/25 01:26:23;;;;;;;40.45;21.00;;;;;;;;;;2114366;28;19919;-43
2022/10/25 01:27:36;;;;;;;42.42;21.33;;;;;;;;;;2088334;28;20049;-43
2022/10/25 01:28:42;;;;;;;45.00;22.27;;;;;;;;;;2114378;28;20047;-43
2022/10/25 01:29:59;;;;;;;44.60;22.77;;;;;;;;;;2114370;28;20404;-43
2022/10/25 01:31:12;;;;;;;35.30;18.88;;;;;;;;;;2114369;28;20048;-44
2022/10/25 01:32:19;;;;;;;34.60;18.73;;;;;;;;;;2114284;28;20048;-44
2022/10/25 01:33:26;;;;;;;42.10;22.45;;;;;;;;;;2114620;28;20329;-45
2022/10/25 01:34:29;;;;;;;36.95;20.50;;;;;;;;;;2114036;28;20051;-44
2022/10/25 01:35:31;;;;;;;45.58;21.70;;;;;;;;;;2114554;28;20050;-44
2022/10/25 01:36:38;;;;;;;40.00;20.90;;;;;;;;;;2114352;28;20096;-44
2022/10/25 01:37:41;;;;;;;44.78;22.63;;;;;;;;;;2114360;28;20943;-44
2022/10/25 01:38:46;;;;;;;44.90;23.10;;;;;;;;;;2114457;28;20442;-43
2022/10/25 01:39:51;;;;;;;43.90;22.30;;;;;;;;;;2114334;28;20054;-44
2022/10/25 01:40:59;;;;;;;46.75;23.80;;;;;;;;;;2114689;28;20043;-44
2022/10/25 01:42:04;;;;;;;44.17;23.33;;;;;;;;;;2114345;28;20050;-43
2022/10/25 01:43:07;;;;;;;42.13;21.60;;;;;;;;;;2114342;28;20100;-44
2022/10/25 01:44:12;;;;;;;42.78;23.15;;;;;;;;;;2114332;28;20047;-44
2022/10/25 01:45:18;;;;;;;41.10;21.48;;;;;;;;;;2114426;28;20101;-43
2022/10/25 01:46:24;;;;;;;41.20;21.63;;;;;;;;;;2114163;28;20046;-43
2022/10/25 01:47:28;;;;;;;40.88;21.35;;;;;;;;;;2114427;28;20044;-43
2022/10/25 01:48:31;;;;;;;40.83;21.65;;;;;;;;;;2114289;28;20059;-44
2022/10/25 01:49:34;;;;;;;38.75;20.83;;;;;;;;;;2114351;28;20043;-44
2022/10/25 01:50:39;;;;;;;38.78;20.98;;;;;;;;;;2114451;28;20048;-44
2022/10/25 01:51:40;;;;;;;40.25;21.42;;;;;;;;;;2107452;28;20036;-43
2022/10/25 01:52:42;;;;;;;41.70;22.80;;;;;;;;;;2105904;28;20236;-44
2022/10/25 01:53:46;;;;;;;38.15;21.30;;;;;;;;;;2105736;28;20284;-43
2022/10/25 01:54:48;;;;;;;41.58;22.15;;;;;;;;;;2105980;28;20056;-44
2022/10/25 01:55:55;;;;;;;41.30;22.88;;;;;;;;;;2105989;28;20056;-45
2022/10/25 01:57:02;;;;;;;42.40;21.85;;;;;;;;;;2105863;28;20052;-45
2022/10/25 01:58:10;;;;;;;38.70;21.85;;;;;;;;;;2105866;28;20056;-44
2022/10/25 01:59:21;;;;;;;41.78;21.42;;;;;;;;;;2106257;28;20067;-45
2022/10/25 02:00:22;;;;;;;41.75;21.63;;;;;;;;;;2105968;28;20489;-43
2022/10/25 02:01:27;;;;;;;42.63;22.50;;;;;;;;;;2105614;28;20484;-43
2022/10/25 02:02:31;;;;;;;39.70;20.92;;;;;;;;;;2105720;28;20044;-43
2022/10/25 02:03:34;;;;;;;40.72;21.77;;;;;;;;;;2107036;28;20059;-42
2022/10/25 02:04:39;;;;;;;37.13;21.20;;;;;;;;;;2107354;28;20048;-44
2022/10/25 02:05:47;;;;;;;43.45;23.98;;;;;;;;;;2107294;28;20400;-45
2022/10/25 02:06:52;;;;;;;42.65;23.45;;;;;;;;;;2107445;28;20044;-44
2022/10/25 02:07:59;;;;;;;41.05;21.85;;;;;;;;;;2107394;28;20059;-44
2022/10/25 02:09:03;;;;;;;44.67;23.67;;;;;;;;;;2107304;28;20109;-44
2022/10/25 02:10:07;;;;;;;40.10;21.45;;;;;;;;;;2107303;28;20043;-44
2022/10/25 02:11:11;;;;;;;35.78;20.60;;;;;;;;;;2107083;28;20051;-47
2022/10/25 02:12:14;;;;;;;37.50;22.67;;;;;;;;;;2107116;28;20408;-44
2022/10/25 02:13:19;;;;;;;39.00;21.42;;;;;;;;;;2111013;28;20089;-45
2022/10/25 02:14:21;;;;;;;41.50;22.35;;;;;;;;;;2115825;28;20039;-45
2022/10/25 02:15:26;;;;;;;32.50;20.40;;;;;;;;;;2115955;28;20055;-43
2022/10/25 02:16:30;;;;;;;35.67;21.25;;;;;;;;;;2115538;28;20622;-44
2022/10/25 02:17:32;;;;;;;39.75;21.60;;;;;;;;;;2115584;28;20052;-43
2022/10/25 02:18:35;;;;;;;39.72;21.85;;;;;;;;;;2115614;28;20039;-43
2022/10/25 02:19:38;;;;;;;38.58;21.55;;;;;;;;;;2115742;28;20051;-43
2022/10/25 02:20:39;;;;;;;39.08;23.00;;;;;;;;;;2115571;28;20068;-43
2022/10/25 02:21:45;;;;;;;41.45;23.02;;;;;;;;;;2115363;28;20048;-43
2022/10/25 02:22:50;;;;;;;43.08;24.98;;;;;;;;;;2115830;28;20047;-43
2022/10/25 02:23:52;;;;;;;51.78;25.35;;;;;;;;;;2115529;28;20056;-43
2022/10/25 02:24:55;;;;;;;44.05;24.15;;;;;;;;;;2115664;28;20050;-42
2022/10/25 02:25:57;;;;;;;40.72;22.80;;;;;;;;;;2115654;28;20090;-44
2022/10/25 02:26:58;;;;;;;43.05;22.98;;;;;;;;;;2115792;28;20124;-44
2022/10/25 02:28:00;;;;;;;48.47;25.13;;;;;;;;;;2115956;28;20054;-44
2022/10/25 02:29:02;;;;;;;43.45;23.88;;;;;;;;;;2115375;28;20101;-46
2022/10/25 02:30:04;;;;;;;47.78;24.63;;;;;;;;;;2115629;28;20048;-44
2022/10/25 02:31:06;;;;;;;49.50;25.33;;;;;;;;;;2115449;28;20412;-46
2022/10/25 02:32:07;;;;;;;45.50;24.58;;;;;;;;;;2115407;28;20043;-45
2022/10/25 02:33:10;;;;;;;46.15;23.77;;;;;;;;;;2115998;28;20051;-42
2022/10/25 02:34:11;;;;;;;45.63;23.95;;;;;;;;;;2115467;28;20052;-42
2022/10/25 02:35:13;;;;;;;46.73;25.27;;;;;;;;;;2115603;28;20404;-43
2022/10/25 02:36:17;;;;;;;42.03;23.77;;;;;;;;;;2115417;28;20054;-42
2022/10/25 02:37:18;;;;;;;46.08;24.73;;;;;;;;;;2115440;28;20447;-42
2022/10/25 02:38:19;;;;;;;48.75;25.13;;;;;;;;;;2115535;28;20047;-43
2022/10/25 02:39:21;;;;;;;50.20;26.00;;;;;;;;;;2115557;28;20043;-44
2022/10/25 02:40:26;;;;;;;52.17;26.42;;;;;;;;;;2115432;28;20480;-46
2022/10/25 02:41:27;;;;;;;45.10;23.77;;;;;;;;;;2115170;28;20031;-43
2022/10/25 02:42:28;;;;;;;52.50;25.70;;;;;;;;;;2115669;28;20051;-43
2022/10/25 02:43:29;;;;;;;47.27;25.93;;;;;;;;;;2115392;28;20142;-42
2022/10/25 02:44:35;;;;;;;42.45;23.60;;;;;;;;;;2115715;28;20763;-45
2022/10/25 02:45:36;;;;;;;47.67;25.63;;;;;;;;;;2115424;28;20108;-46
2022/10/25 02:46:37;;;;;;;44.97;25.42;;;;;;;;;;2115441;28;20097;-44
2022/10/25 02:47:39;;;;;;;48.67;26.23;;;;;;;;;;2115341;28;20043;-46
2022/10/25 02:48:40;;;;;;;47.83;26.75;;;;;;;;;;2115521;28;20062;-45
2022/10/25 02:49:41;;;;;;;51.58;24.42;;;;;;;;;;2115582;28;20515;-45
2022/10/25 02:50:42;;;;;;;50.08;27.65;;;;;;;;;;2115549;28;20047;-45
2022/10/25 02:51:43;;;;;;;49.80;26.33;;;;;;;;;;2108222;28;20040;-45
2022/10/25 02:52:44;;;;;;;51.13;28.55;;;;;;;;;;2106958;28;20047;-45
2022/10/25 02:53:46;;;;;;;52.80;27.67;;;;;;;;;;2107126;28;20052;-48
2022/10/25 02:54:47;;;;;;;53.42;28.08;;;;;;;;;;2106909;28;20040;-46
2022/10/25 02:55:48;;;;;;;50.53;26.98;;;;;;;;;;2107162;28;20447;-45
2022/10/25 02:56:51;;;;;;;52.65;26.58;;;;;;;;;;2114913;28;20044;-45
2022/10/25 02:57:52;;;;;;;43.78;25.65;;;;;;;;;;2115376;28;20381;-45
2022/10/25 02:58:54;;;;;;;57.00;28.60;;;;;;;;;;2115315;28;20054;-44
2022/10/25 02:59:55;;;;;;;50.72;27.17;;;;;;;;;;2115662;28;20055;-43
2022/10/25 03:00:56;;;;;;;52.20;26.60;;;;;;;;;;2115417;28;20051;-43
2022/10/25 03:01:57;;;;;;;57.47;27.98;;;;;;;;;;2115631;28;20059;-45
2022/10/25 03:02:59;;;;;;;48.75;26.33;;;;;;;;;;2115288;28;20552;-45
2022/10/25 03:04:00;;;;;;;51.95;26.30;;;;;;;;;;2115663;28;20100;-43
2022/10/25 03:05:01;;;;;;;47.95;26.70;;;;;;;;;;2115390;28;20055;-43
2022/10/25 03:06:03;;;;;;;49.00;25.15;;;;;;;;;;2115196;28;20048;-42
2022/10/25 03:07:04;;;;;;;46.85;24.58;;;;;;;;;;2115379;28;20043;-43
2022/10/25 03:08:05;;;;;;;51.47;27.83;;;;;;;;;;2115266;28;20048;-42
2022/10/25 03:09:06;;;;;;;51.63;28.25;;;;;;;;;;2115409;28;20077;-43
2022/10/25 03:10:07;;;;;;;49.95;26.98;;;;;;;;;;2115627;28;20063;-43
2022/10/25 03:11:09;;;;;;;53.05;27.52;;;;;;;;;;2115224;28;20381;-43
2022/10/25 03:12:10;;;;;;;51.97;26.58;;;;;;;;;;2115250;28;20051;-42
2022/10/25 03:13:11;;;;;;;45.00;25.15;;;;;;;;;;2115297;28;20059;-42
2022/10/25 03:14:12;;;;;;;54.95;27.25;;;;;;;;;;2114834;28;20052;-43
2022/10/25 03:15:13;;;;;;;52.28;26.30;;;;;;;;;;2115055;28;20036;-44
2022/10/25 03:16:14;;;;;;;51.38;26.70;;;;;;;;;;2115335;28;20408;-44
2022/10/25 03:17:15;;;;;;;47.30;25.67;;;;;;;;;;2114899;28;20050;-45
2022/10/25 03:18:17;;;;;;;55.00;28.10;;;;;;;;;;2115596;28;20048;-42
2022/10/25 03:19:17;;;;;;;;;;;;;;;;;;2115620;28;20484;-43
2022/10/25 03:20:19;;;;;;;46.30;24.02;;;;;;;;;;2115357;28;19919;-45
2022/10/25 03:21:19;;;;;;;52.63;27.10;;;;;;;;;;2115275;28;20054;-45
2022/10/25 03:22:21;;;;;;;54.05;25.75;;;;;;;;;;2115303;28;20050;-44
2022/10/25 03:23:22;;;;;;;48.67;26.45;;;;;;;;;;2115086;28;20040;-44
2022/10/25 03:24:23;;;;;;;45.30;24.90;;;;;;;;;;2115303;28;20416;-44
2022/10/25 03:25:24;;;;;;;47.65;24.80;;;;;;;;;;2115218;28;20059;-45
2022/10/25 03:26:26;;;;;;;;;;;;;;;;;;2115496;28;20531;-45
2022/10/25 03:27:27;;;;;;;52.42;24.23;;;;;;;;;;2115287;28;19924;-45
2022/10/25 03:28:28;;;;;;;51.35;27.33;;;;;;;;;;2114742;28;20472;-43
2022/10/25 03:29:29;;;;;;;41.72;23.33;;;;;;;;;;2115716;28;20055;-44
2022/10/25 03:30:30;;;;;;;42.97;22.63;;;;;;;;;;2115174;28;20396;-44
2022/10/25 03:31:31;;;;;;;48.97;26.33;;;;;;;;;;2114979;28;20055;-44
2022/10/25 03:32:33;;;;;;;46.20;25.57;;;;;;;;;;2115072;28;20048;-45
2022/10/25 03:33:34;;;;;;;33.70;19.88;;;;;;;;;;2114868;28;20052;-44
2022/10/25 03:34:35;;;;;;;38.10;20.73;;;;;;;;;;2114965;28;20044;-44
2022/10/25 03:35:36;;;;;;;38.40;22.33;;;;;;;;;;2115109;28;20044;-45
2022/10/25 03:36:37;;;;;;;33.13;20.17;;;;;;;;;;2115015;28;20087;-44
2022/10/25 03:37:38;;;;;;;40.97;24.17;;;;;;;;;;2115138;28;20051;-44
2022/10/25 03:38:39;;;;;;;46.67;24.58;;;;;;;;;;2115071;28;20047;-46
2022/10/25 03:39:40;;;;;;;49.45;24.95;;;;;;;;;;2115060;28;20055;-44
2022/10/25 03:40:41;;;;;;;46.03;25.27;;;;;;;;;;2115190;28;20605;-44
2022/10/25 03:41:42;;;;;;;39.50;22.55;;;;;;;;;;2114906;28;20408;-44
2022/10/25 03:42:44;;;;;;;43.17;24.17;;;;;;;;;;2115185;28;20363;-44
2022/10/25 03:43:44;;;;;;;48.10;26.55;;;;;;;;;;2115047;28;20442;-45
2022/10/25 03:44:46;;;;;;;47.83;26.27;;;;;;;;;;2115132;28;20056;-44
2022/10/25 03:45:47;;;;;;;39.35;23.50;;;;;;;;;;2115287;28;20489;-46
2022/10/25 03:46:48;;;;;;;42.87;25.27;;;;;;;;;;2114933;28;20130;-44
2022/10/25 03:47:49;;;;;;;33.75;20.17;;;;;;;;;;2115279;28;20043;-45
2022/10/25 03:48:51;;;;;;;39.03;23.45;;;;;;;;;;2115165;28;20047;-45
2022/10/25 03:49:52;;;;;;;34.75;20.98;;;;;;;;;;2115515;28;20051;-45
2022/10/25 03:50:53;;;;;;;30.27;18.70;;;;;;;;;;2115034;28;20040;-45
2022/10/25 03:51:54;;;;;;;36.25;20.73;;;;;;;;;;2106507;28;20047;-44
2022/10/25 03:53:00;;;;;;;40.05;23.02;;;;;;;;;;2106471;28;20097;-44
2022/10/25 03:54:02;;;;;;;36.05;19.25;;;;;;;;;;2106940;28;20052;-45
2022/10/25 03:55:03;;;;;;;37.67;22.43;;;;;;;;;;2106544;28;20060;-45
2022/10/25 03:56:05;;;;;;;42.28;23.70;;;;;;;;;;2106476;28;20090;-44
2022/10/25 03:57:06;;;;;;;43.05;23.80;;;;;;;;;;2106893;28;20130;-43
2022/10/25 03:58:07;;;;;;;46.08;24.15;;;;;;;;;;2106667;28;20052;-43
2022/10/25 03:59:08;;;;;;;40.73;23.70;;;;;;;;;;2106749;28;20141;-44
2022/10/25 04:00:09;;;;;;;39.55;23.52;;;;;;;;;;2106460;28;20047;-43
2022/10/25 04:01:10;;;;;;;43.40;23.75;;;;;;;;;;2106778;28;20048;-44
2022/10/25 04:02:13;;;;;;;43.78;22.88;;;;;;;;;;2106417;28;20052;-44
2022/10/25 04:03:14;;;;;;;45.47;24.77;;;;;;;;;;2106736;28;20074;-43
2022/10/25 04:04:16;;;;;;;38.05;21.55;;;;;;;;;;2106428;28;20044;-43
2022/10/25 04:05:17;;;;;;;36.05;20.40;;;;;;;;;;2106640;28;20097;-44
2022/10/25 04:06:18;;;;;;;35.30;21.23;;;;;;;;;;2111507;28;20043;-43
2022/10/25 04:07:19;;;;;;;37.40;22.25;;;;;;;;;;2115006;28;20043;-42
2022/10/25 04:08:20;;;;;;;35.67;19.83;;;;;;;;;;2114727;28;20066;-43
2022/10/25 04:09:21;;;;;;;38.35;21.45;;;;;;;;;;2114911;28;20422;-42
2022/10/25 04:10:22;;;;;;;36.27;21.27;;;;;;;;;;2114579;28;22074;-43
2022/10/25 04:11:25;;;;;;;35.95;21.10;;;;;;;;;;2114794;28;20047;-44
2022/10/25 04:12:27;;;;;;;40.13;22.70;;;;;;;;;;2114930;28;20054;-43
2022/10/25 04:13:28;;;;;;;40.20;21.45;;;;;;;;;;2114510;28;20096;-44
2022/10/25 04:14:29;;;;;;;35.97;22.02;;;;;;;;;;2114880;28;20105;-43
2022/10/25 04:15:30;;;;;;;38.90;22.08;;;;;;;;;;2114425;28;20101;-45
2022/10/25 04:16:31;;;;;;;36.37;21.97;;;;;;;;;;2114999;28;20100;-44
2022/10/25 04:17:32;;;;;;;34.72;20.48;;;;;;;;;;2115014;28;20047;-44
2022/10/25 04:18:33;;;;;;;33.60;21.00;;;;;;;;;;2115180;28;20481;-42
2022/10/25 04:19:34;;;;;;;31.02;18.60;;;;;;;;;;2114873;28;20047;-43
2022/10/25 04:20:36;;;;;;;29.05;18.52;;;;;;;;;;2114799;28;20055;-43
2022/10/25 04:21:36;;;;;;;39.47;20.88;;;;;;;;;;2115165;28;20046;-44
2022/10/25 04:22:38;;;;;;;37.28;22.05;;;;;;;;;;2114974;28;20180;-45
2022/10/25 04:23:39;;;;;;;35.22;22.25;;;;;;;;;;2114907;28;20126;-44
2022/10/25 04:24:40;;;;;;;37.53;21.63;;;;;;;;;;2114984;28;20083;-42
2022/10/25 04:25:41;;;;;;;34.28;20.40;;;;;;;;;;2113917;28;20054;-44
2022/10/25 04:26:42;;;;;;;39.13;22.53;;;;;;;;;;2114645;28;20075;-45
2022/10/25 04:27:43;;;;;;;37.33;21.80;;;;;;;;;;2114832;28;20047;-45
2022/10/25 04:28:48;;;;;;;33.35;20.95;;;;;;;;;;2114687;28;20500;-44
2022/10/25 04:29:49;;;;;;;36.45;21.23;;;;;;;;;;2114794;28;20044;-46
2022/10/25 04:30:50;;;;;;;31.20;18.33;;;;;;;;;;2115670;28;20053;-44
2022/10/25 04:31:51;;;;;;;37.63;22.13;;;;;;;;;;2114741;28;20047;-45
2022/10/25 04:32:52;;;;;;;41.63;22.20;;;;;;;;;;2114765;28;20047;-44
2022/10/25 04:33:54;;;;;;;32.58;20.25;;;;;;;;;;2114702;28;20055;-44
2022/10/25 04:34:57;;;;;;;35.00;21.63;;;;;;;;;;2115359;28;20082;-42
2022/10/25 04:35:58;;;;;;;35.80;21.83;;;;;;;;;;2114807;28;20043;-43
2022/10/25 04:36:59;;;;;;;34.28;20.77;;;;;;;;;;2115290;28;20043;-42
2022/10/25 04:38:00;;;;;;;36.55;21.85;;;;;;;;;;2114950;28;20314;-44
2022/10/25 04:39:02;;;;;;;32.27;20.50;;;;;;;;;;2114882;28;20148;-43
2022/10/25 04:40:03;;;;;;;42.28;21.52;;;;;;;;;;2114813;28;20138;-45
2022/10/25 04:41:04;;;;;;;39.70;21.90;;;;;;;;;;2114626;28;20054;-45
2022/10/25 04:42:05;;;;;;;32.60;20.42;;;;;;;;;;2114661;28;20047;-45
2022/10/25 04:43:06;;;;;;;42.90;21.97;;;;;;;;;;2114889;28;20101;-44
2022/10/25 04:44:07;;;;;;;40.03;21.55;;;;;;;;;;2114583;28;20052;-42
2022/10/25 04:45:08;;;;;;;34.75;19.92;;;;;;;;;;2115238;28;20052;-43
2022/10/25 04:46:09;;;;;;;33.45;20.67;;;;;;;;;;2114662;28;20063;-44
2022/10/25 04:47:11;;;;;;;30.83;19.38;;;;;;;;;;2114587;28;20040;-44
2022/10/25 04:48:11;;;;;;;32.90;20.17;;;;;;;;;;2114942;28;20051;-43
2022/10/25 04:49:13;;;;;;;30.88;19.52;;;;;;;;;;2114672;28;20043;-43
2022/10/25 04:50:15;;;;;;;36.03;20.63;;;;;;;;;;2114762;28;20048;-43
2022/10/25 04:51:16;;;;;;;33.60;20.58;;;;;;;;;;2114659;28;20047;-42
2022/10/25 04:52:19;;;;;;;37.58;22.98;;;;;;;;;;2114513;28;20047;-43
2022/10/25 04:53:20;;;;;;;36.88;22.23;;;;;;;;;;2114689;28;20491;-43
2022/10/25 04:54:21;;;;;;;36.95;21.88;;;;;;;;;;2114917;28;20050;-43
2022/10/25 04:55:23;;;;;;;35.70;20.63;;;;;;;;;;2114660;28;20145;-43
2022/10/25 04:56:24;;;;;;;32.00;20.02;;;;;;;;;;2114452;28;20583;-43
2022/10/25 04:57:25;;;;;;;32.53;19.60;;;;;;;;;;2114684;28;20059;-42
2022/10/25 04:58:26;;;;;;;31.05;19.83;;;;;;;;;;2114791;28;20044;-43
2022/10/25 04:59:32;;;;;;;33.92;20.10;;;;;;;;;;2114276;28;20135;-44
2022/10/25 05:00:33;;;;;;;33.90;19.15;;;;;;;;;;2114548;28;20043;-44
2022/10/25 05:01:34;;;;;;;33.37;20.50;;;;;;;;;;2141264;22;20050;-43
2022/10/25 05:02:35;;;;;;;33.90;20.17;;;;;;;;;;2097897;28;20052;-43
2022/10/25 05:03:36;;;;;;;32.50;18.47;;;;;;;;;;2097884;28;20044;-47
2022/10/25 05:04:37;;;;;;;31.75;18.60;;;;;;;;;;2097945;28;20041;-47
2022/10/25 05:05:39;;;;;;;33.43;19.90;;;;;;;;;;2097706;28;20057;-45
2022/10/25 05:06:40;;;;;;;26.15;17.30;;;;;;;;;;2091789;28;20053;-46
2022/10/25 05:07:41;;;;;;;32.57;20.53;;;;;;;;;;2089586;28;20044;-48
2022/10/25 05:08:43;;;;;;;34.25;19.73;;;;;;;;;;2089401;28;20064;-46
2022/10/25 05:09:45;;;;;;;36.42;21.50;;;;;;;;;;2089510;28;20044;-47
2022/10/25 05:10:52;;;;;;;35.10;21.50;;;;;;;;;;2089171;28;20524;-44
2022/10/25 05:11:53;;;;;;;36.67;22.10;;;;;;;;;;2089545;28;20114;-47
2022/10/25 05:12:54;;;;;;;36.00;21.77;;;;;;;;;;2089070;28;20044;-46
2022/10/25 05:13:55;;;;;;;39.40;21.50;;;;;;;;;;2089553;28;20095;-45
2022/10/25 05:14:56;;;;;;;38.40;22.02;;;;;;;;;;2089987;28;20045;-44
2022/10/25 05:15:57;;;;;;;35.37;22.23;;;;;;;;;;2089330;28;20623;-44
2022/10/25 05:16:58;;;;;;;39.60;22.50;;;;;;;;;;2089491;28;20339;-44
2022/10/25 05:18:00;;;;;;;38.53;22.00;;;;;;;;;;2089428;28;20102;-44
2022/10/25 05:19:01;;;;;;;37.80;21.95;;;;;;;;;;2089510;28;20282;-45
2022/10/25 05:20:02;;;;;;;36.47;22.43;;;;;;;;;;2089533;28;20187;-45
2022/10/25 05:21:04;;;;;;;35.38;22.58;;;;;;;;;;2089272;28;20052;-47
2022/10/25 05:22:06;;;;;;;33.45;20.42;;;;;;;;;;2089302;28;20078;-46
2022/10/25 05:23:07;;;;;;;33.90;21.10;;;;;;;;;;2089443;28;20102;-46
2022/10/25 05:24:08;;;;;;;40.03;22.23;;;;;;;;;;2089766;28;20052;-46
2022/10/25 05:25:09;;;;;;;41.42;23.10;;;;;;;;;;2089489;28;20041;-46
2022/10/25 05:26:11;;;;;;;34.03;21.70;;;;;;;;;;2089250;28;20489;-46
2022/10/25 05:27:12;;;;;;;;;;;;;;;;;;2089778;28;20107;-46
2022/10/25 05:28:13;;;;;;;39.17;21.67;;;;;;;;;;2089174;28;20455;-46
2022/10/25 05:29:14;;;;;;;36.08;20.67;;;;;;;;;;2089315;28;20053;-46
2022/10/25 05:30:15;;;;;;;39.70;22.30;;;;;;;;;;2089458;28;20057;-45
2022/10/25 05:31:17;;;;;;;34.43;21.20;;;;;;;;;;2089255;28;20405;-45
2022/10/25 05:32:18;;;;;;;36.33;21.48;;;;;;;;;;2089612;28;20049;-44
2022/10/25 05:33:19;;;;;;;35.73;22.33;;;;;;;;;;2089218;28;20053;-44
2022/10/25 05:34:21;;;;;;;39.05;22.90;;;;;;;;;;2089672;28;20041;-46
2022/10/25 05:35:22;;;;;;;40.05;23.83;;;;;;;;;;2089261;28;20045;-45
2022/10/25 05:36:24;;;;;;;35.90;22.33;;;;;;;;;;2089300;28;20128;-46
2022/10/25 05:37:25;;;;;;;36.17;20.80;;;;;;;;;;2089174;28;20098;-46
2022/10/25 05:38:26;;;;;;;39.37;23.70;;;;;;;;;;2089439;28;20445;-46
2022/10/25 05:39:28;;;;;;;41.95;24.58;;;;;;;;;;2089259;28;20438;-46
2022/10/25 05:40:28;;;;;;;38.50;22.90;;;;;;;;;;2089434;28;20110;-48
2022/10/25 05:41:30;;;;;;;43.40;25.53;;;;;;;;;;2089505;28;20110;-46
2022/10/25 05:42:36;;;;;;;43.60;24.67;;;;;;;;;;2089429;28;20048;-46
2022/10/25 05:43:37;;;;;;;39.75;23.00;;;;;;;;;;2089567;28;20053;-44
2022/10/25 05:44:39;;;;;;;44.27;26.47;;;;;;;;;;2089194;28;20489;-44
2022/10/25 05:45:42;;;;;;;50.88;28.38;;;;;;;;;;2089279;28;20049;-45
2022/10/25 05:46:43;;;;;;;42.33;25.67;;;;;;;;;;2089091;28;20405;-44
2022/10/25 05:47:44;;;;;;;49.13;27.50;;;;;;;;;;2089327;28;20408;-47
2022/10/25 05:48:45;;;;;;;43.17;25.63;;;;;;;;;;2089361;28;20045;-46
2022/10/25 05:49:49;;;;;;;41.72;24.50;;;;;;;;;;2089348;28;20049;-44
2022/10/25 05:50:51;;;;;;;52.10;28.65;;;;;;;;;;2090071;28;20053;-44
2022/10/25 05:52:05;;;;;;;51.40;29.52;;;;;;;;;;2081166;28;20136;-45
2022/10/25 05:53:05;;;;;;;;;;;;;;;;;;2081666;28;20048;-44
2022/10/25 05:54:08;;;;;;;44.92;26.60;;;;;;;;;;2081124;28;19925;-44
2022/10/25 05:55:09;;;;;;;54.20;28.08;;;;;;;;;;2081055;28;20050;-44
2022/10/25 05:56:11;;;;;;;46.45;27.42;;;;;;;;;;2080799;28;20490;-44
2022/10/25 05:57:12;;;;;;;47.13;26.95;;;;;;;;;;2085685;28;20053;-44
2022/10/25 05:58:13;;;;;;;45.13;25.50;;;;;;;;;;2089107;28;20057;-44
2022/10/25 05:59:14;;;;;;;51.55;28.00;;;;;;;;;;2088953;28;20132;-46
2022/10/25 06:00:16;;;;;;;43.67;25.52;;;;;;;;;;2089678;28;20064;-45
2022/10/25 06:01:18;;;;;;;45.22;26.85;;;;;;;;;;2089113;28;20486;-44
2022/10/25 06:02:19;;;;;;;43.40;24.77;;;;;;;;;;2089319;28;20049;-44
2022/10/25 06:03:20;;;;;;;48.20;25.30;;;;;;;;;;2089103;28;20079;-46
2022/10/25 06:04:23;;;;;;;47.40;26.42;;;;;;;;;;2089270;28;20063;-45